<?xml version="1.0" encoding="UTF-8" standalone="no" ?>
<gpx xmlns="http://www.topografix.com/GPX/1/1" xmlns:xsi="http://www.w3.org/2001/XMLSchema-instance" xsi:schemaLocation="http://www.topografix.com/GPX/1/1 http://www.topografix.com/GPX/1/1/gpx.xsd" version="1.1" creator="VisuGPX - https://www.visugpx.com">
  <metadata>
    <name>RPM Gr 1 : LA BRAGUE - LE BRUGUET</name>
    <desc><![CDATA[Départ Valbonne, direction sud - monter les escaliers - La Gonelle par la piste - descendre en direction du vallon du Bruguet - continuer dans le P.D. en direction du pont des Tamarins - prendre la vallée de la Brague vers Biot sur environ 2,6 km - retour à Valbonne en longeant constamment la Brague - visite de Valbonne et de l'abbaye.]]></desc>
  </metadata>
  <trk>
    <name><![CDATA[Randonnée du 26/01/2019 à 17:52]]></name>
    <trkseg>
      <trkpt lat="43.64058" lon="7.00866">
        <ele>186</ele>
        <time>2019-01-26T17:52:52+01:00</time>
      </trkpt>
      <trkpt lat="43.63999" lon="7.00853">
        <ele>180</ele>
        <time>2019-01-26T17:52:57+01:00</time>
      </trkpt>
      <trkpt lat="43.63893" lon="7.0087">
        <ele>208</ele>
        <time>2019-01-26T17:53:02+01:00</time>
      </trkpt>
      <trkpt lat="43.63775" lon="7.00818">
        <ele>219</ele>
        <time>2019-01-26T17:53:07+01:00</time>
      </trkpt>
      <trkpt lat="43.63573" lon="7.00703">
        <ele>222</ele>
        <time>2019-01-26T17:53:12+01:00</time>
      </trkpt>
      <trkpt lat="43.63533" lon="7.00844">
        <ele>236</ele>
        <time>2019-01-26T17:53:17+01:00</time>
      </trkpt>
      <trkpt lat="43.63443" lon="7.00999">
        <ele>260</ele>
        <time>2019-01-26T17:53:22+01:00</time>
      </trkpt>
      <trkpt lat="43.63539" lon="7.01406">
        <ele>260</ele>
        <time>2019-01-26T17:53:27+01:00</time>
      </trkpt>
      <trkpt lat="43.63573" lon="7.01587">
        <ele>254</ele>
        <time>2019-01-26T17:53:32+01:00</time>
      </trkpt>
      <trkpt lat="43.63583" lon="7.01625">
        <ele>252</ele>
        <time>2019-01-26T17:53:37+01:00</time>
      </trkpt>
      <trkpt lat="43.63583" lon="7.0169">
        <ele>250</ele>
        <time>2019-01-26T17:53:42+01:00</time>
      </trkpt>
      <trkpt lat="43.63576" lon="7.0175">
        <ele>248</ele>
        <time>2019-01-26T17:53:47+01:00</time>
      </trkpt>
      <trkpt lat="43.63592" lon="7.01926">
        <ele>244</ele>
        <time>2019-01-26T17:53:52+01:00</time>
      </trkpt>
      <trkpt lat="43.63573" lon="7.01986">
        <ele>243</ele>
        <time>2019-01-26T17:53:57+01:00</time>
      </trkpt>
      <trkpt lat="43.63589" lon="7.02016">
        <ele>244</ele>
        <time>2019-01-26T17:54:02+01:00</time>
      </trkpt>
      <trkpt lat="43.63598" lon="7.02093">
        <ele>243</ele>
        <time>2019-01-26T17:54:07+01:00</time>
      </trkpt>
      <trkpt lat="43.63626" lon="7.02132">
        <ele>242</ele>
        <time>2019-01-26T17:54:12+01:00</time>
      </trkpt>
      <trkpt lat="43.63626" lon="7.02179">
        <ele>242</ele>
        <time>2019-01-26T17:54:17+01:00</time>
      </trkpt>
      <trkpt lat="43.63524" lon="7.02192">
        <ele>242</ele>
        <time>2019-01-26T17:54:22+01:00</time>
      </trkpt>
      <trkpt lat="43.63409" lon="7.0223">
        <ele>235</ele>
        <time>2019-01-26T17:54:27+01:00</time>
      </trkpt>
      <trkpt lat="43.63346" lon="7.02376">
        <ele>225</ele>
        <time>2019-01-26T17:54:32+01:00</time>
      </trkpt>
      <trkpt lat="43.63346" lon="7.02411">
        <ele>223</ele>
        <time>2019-01-26T17:54:37+01:00</time>
      </trkpt>
      <trkpt lat="43.63384" lon="7.02436">
        <ele>222</ele>
        <time>2019-01-26T17:54:42+01:00</time>
      </trkpt>
      <trkpt lat="43.63427" lon="7.02436">
        <ele>220</ele>
        <time>2019-01-26T17:54:47+01:00</time>
      </trkpt>
      <trkpt lat="43.63437" lon="7.02466">
        <ele>217</ele>
        <time>2019-01-26T17:54:52+01:00</time>
      </trkpt>
      <trkpt lat="43.63415" lon="7.02531">
        <ele>218</ele>
        <time>2019-01-26T17:54:57+01:00</time>
      </trkpt>
      <trkpt lat="43.63427" lon="7.02625">
        <ele>214</ele>
        <time>2019-01-26T17:55:02+01:00</time>
      </trkpt>
      <trkpt lat="43.63427" lon="7.02681">
        <ele>213</ele>
        <time>2019-01-26T17:55:07+01:00</time>
      </trkpt>
      <trkpt lat="43.63412" lon="7.02668">
        <ele>214</ele>
        <time>2019-01-26T17:55:12+01:00</time>
      </trkpt>
      <trkpt lat="43.63297" lon="7.02681">
        <ele>200</ele>
        <time>2019-01-26T17:55:17+01:00</time>
      </trkpt>
      <trkpt lat="43.63213" lon="7.02659">
        <ele>190</ele>
        <time>2019-01-26T17:55:22+01:00</time>
      </trkpt>
      <trkpt lat="43.63132" lon="7.02681">
        <ele>179</ele>
        <time>2019-01-26T17:55:27+01:00</time>
      </trkpt>
      <trkpt lat="43.6303" lon="7.02784">
        <ele>161</ele>
        <time>2019-01-26T17:55:32+01:00</time>
      </trkpt>
      <trkpt lat="43.62986" lon="7.02917">
        <ele>159</ele>
        <time>2019-01-26T17:55:37+01:00</time>
      </trkpt>
      <trkpt lat="43.62958" lon="7.03011">
        <ele>154</ele>
        <time>2019-01-26T17:55:42+01:00</time>
      </trkpt>
      <trkpt lat="43.62964" lon="7.03071">
        <ele>151</ele>
        <time>2019-01-26T17:55:47+01:00</time>
      </trkpt>
      <trkpt lat="43.62989" lon="7.03127">
        <ele>152</ele>
        <time>2019-01-26T17:55:52+01:00</time>
      </trkpt>
      <trkpt lat="43.62968" lon="7.03166">
        <ele>151</ele>
        <time>2019-01-26T17:55:57+01:00</time>
      </trkpt>
      <trkpt lat="43.63042" lon="7.0332">
        <ele>151</ele>
        <time>2019-01-26T17:56:02+01:00</time>
      </trkpt>
      <trkpt lat="43.63079" lon="7.03492">
        <ele>145</ele>
        <time>2019-01-26T17:56:07+01:00</time>
      </trkpt>
      <trkpt lat="43.63132" lon="7.03621">
        <ele>146</ele>
        <time>2019-01-26T17:56:12+01:00</time>
      </trkpt>
      <trkpt lat="43.63166" lon="7.03664">
        <ele>141</ele>
        <time>2019-01-26T17:56:17+01:00</time>
      </trkpt>
      <trkpt lat="43.63173" lon="7.03681">
        <ele>141</ele>
        <time>2019-01-26T17:56:22+01:00</time>
      </trkpt>
      <trkpt lat="43.63173" lon="7.03711">
        <ele>144</ele>
        <time>2019-01-26T17:56:27+01:00</time>
      </trkpt>
      <trkpt lat="43.63114" lon="7.03659">
        <ele>162</ele>
        <time>2019-01-26T17:56:32+01:00</time>
      </trkpt>
      <trkpt lat="43.6311" lon="7.03681">
        <ele>165</ele>
        <time>2019-01-26T17:56:37+01:00</time>
      </trkpt>
      <trkpt lat="43.63098" lon="7.03681">
        <ele>168</ele>
        <time>2019-01-26T17:56:42+01:00</time>
      </trkpt>
      <trkpt lat="43.63092" lon="7.03677">
        <ele>170</ele>
        <time>2019-01-26T17:56:47+01:00</time>
      </trkpt>
      <trkpt lat="43.62999" lon="7.03608">
        <ele>183</ele>
        <time>2019-01-26T17:56:52+01:00</time>
      </trkpt>
      <trkpt lat="43.62983" lon="7.03582">
        <ele>184</ele>
        <time>2019-01-26T17:56:57+01:00</time>
      </trkpt>
      <trkpt lat="43.62933" lon="7.03582">
        <ele>191</ele>
        <time>2019-01-26T17:57:02+01:00</time>
      </trkpt>
      <trkpt lat="43.62877" lon="7.03578">
        <ele>198</ele>
        <time>2019-01-26T17:57:07+01:00</time>
      </trkpt>
      <trkpt lat="43.62862" lon="7.03586">
        <ele>200</ele>
        <time>2019-01-26T17:57:12+01:00</time>
      </trkpt>
      <trkpt lat="43.62896" lon="7.03775">
        <ele>205</ele>
        <time>2019-01-26T17:57:17+01:00</time>
      </trkpt>
      <trkpt lat="43.62912" lon="7.03844">
        <ele>203</ele>
        <time>2019-01-26T17:57:22+01:00</time>
      </trkpt>
      <trkpt lat="43.62915" lon="7.03955">
        <ele>200</ele>
        <time>2019-01-26T17:57:27+01:00</time>
      </trkpt>
      <trkpt lat="43.62952" lon="7.04058">
        <ele>196</ele>
        <time>2019-01-26T17:57:32+01:00</time>
      </trkpt>
      <trkpt lat="43.63039" lon="7.04106">
        <ele>199</ele>
        <time>2019-01-26T17:57:37+01:00</time>
      </trkpt>
      <trkpt lat="43.63095" lon="7.0417">
        <ele>199</ele>
        <time>2019-01-26T17:57:42+01:00</time>
      </trkpt>
      <trkpt lat="43.63169" lon="7.0432">
        <ele>194</ele>
        <time>2019-01-26T17:57:47+01:00</time>
      </trkpt>
      <trkpt lat="43.63216" lon="7.04402">
        <ele>189</ele>
        <time>2019-01-26T17:57:52+01:00</time>
      </trkpt>
      <trkpt lat="43.6311" lon="7.04479">
        <ele>179</ele>
        <time>2019-01-26T17:57:57+01:00</time>
      </trkpt>
      <trkpt lat="43.63173" lon="7.04561">
        <ele>168</ele>
        <time>2019-01-26T17:58:02+01:00</time>
      </trkpt>
      <trkpt lat="43.63263" lon="7.04578">
        <ele>160</ele>
        <time>2019-01-26T17:58:07+01:00</time>
      </trkpt>
      <trkpt lat="43.63284" lon="7.04608">
        <ele>155</ele>
        <time>2019-01-26T17:58:12+01:00</time>
      </trkpt>
      <trkpt lat="43.63241" lon="7.04676">
        <ele>147</ele>
        <time>2019-01-26T17:58:17+01:00</time>
      </trkpt>
      <trkpt lat="43.63173" lon="7.04681">
        <ele>145</ele>
        <time>2019-01-26T17:58:22+01:00</time>
      </trkpt>
      <trkpt lat="43.63225" lon="7.04724">
        <ele>139</ele>
        <time>2019-01-26T17:58:27+01:00</time>
      </trkpt>
      <trkpt lat="43.63263" lon="7.0481">
        <ele>132</ele>
        <time>2019-01-26T17:58:32+01:00</time>
      </trkpt>
      <trkpt lat="43.63213" lon="7.04801">
        <ele>129</ele>
        <time>2019-01-26T17:58:37+01:00</time>
      </trkpt>
      <trkpt lat="43.63188" lon="7.04891">
        <ele>131</ele>
        <time>2019-01-26T17:58:42+01:00</time>
      </trkpt>
      <trkpt lat="43.63204" lon="7.04938">
        <ele>126</ele>
        <time>2019-01-26T17:58:47+01:00</time>
      </trkpt>
      <trkpt lat="43.63188" lon="7.05015">
        <ele>125</ele>
        <time>2019-01-26T17:58:52+01:00</time>
      </trkpt>
      <trkpt lat="43.63213" lon="7.05088">
        <ele>121</ele>
        <time>2019-01-26T17:58:57+01:00</time>
      </trkpt>
      <trkpt lat="43.63188" lon="7.05196">
        <ele>121</ele>
        <time>2019-01-26T17:59:02+01:00</time>
      </trkpt>
      <trkpt lat="43.63188" lon="7.05247">
        <ele>119</ele>
        <time>2019-01-26T17:59:07+01:00</time>
      </trkpt>
      <trkpt lat="43.63207" lon="7.05294">
        <ele>114</ele>
        <time>2019-01-26T17:59:12+01:00</time>
      </trkpt>
      <trkpt lat="43.63232" lon="7.05307">
        <ele>108</ele>
        <time>2019-01-26T17:59:17+01:00</time>
      </trkpt>
      <trkpt lat="43.63247" lon="7.05367">
        <ele>100</ele>
        <time>2019-01-26T17:59:22+01:00</time>
      </trkpt>
      <trkpt lat="43.63194" lon="7.0547">
        <ele>92</ele>
        <time>2019-01-26T17:59:27+01:00</time>
      </trkpt>
      <trkpt lat="43.63166" lon="7.05526">
        <ele>90</ele>
        <time>2019-01-26T17:59:32+01:00</time>
      </trkpt>
      <trkpt lat="43.6316" lon="7.05612">
        <ele>90</ele>
        <time>2019-01-26T17:59:37+01:00</time>
      </trkpt>
      <trkpt lat="43.6316" lon="7.05659">
        <ele>92</ele>
        <time>2019-01-26T17:59:42+01:00</time>
      </trkpt>
      <trkpt lat="43.63166" lon="7.05719">
        <ele>99</ele>
        <time>2019-01-26T17:59:47+01:00</time>
      </trkpt>
      <trkpt lat="43.63163" lon="7.05758">
        <ele>97</ele>
        <time>2019-01-26T17:59:52+01:00</time>
      </trkpt>
      <trkpt lat="43.63067" lon="7.05839">
        <ele>86</ele>
        <time>2019-01-26T17:59:57+01:00</time>
      </trkpt>
      <trkpt lat="43.63036" lon="7.05908">
        <ele>87</ele>
        <time>2019-01-26T18:00:02+01:00</time>
      </trkpt>
      <trkpt lat="43.63033" lon="7.06015">
        <ele>93</ele>
        <time>2019-01-26T18:00:07+01:00</time>
      </trkpt>
      <trkpt lat="43.63064" lon="7.06114">
        <ele>89</ele>
        <time>2019-01-26T18:00:12+01:00</time>
      </trkpt>
      <trkpt lat="43.62989" lon="7.06277">
        <ele>77</ele>
        <time>2019-01-26T18:00:17+01:00</time>
      </trkpt>
      <trkpt lat="43.63079" lon="7.06277">
        <ele>71</ele>
        <time>2019-01-26T18:00:22+01:00</time>
      </trkpt>
      <trkpt lat="43.63086" lon="7.06294">
        <ele>70</ele>
        <time>2019-01-26T18:00:27+01:00</time>
      </trkpt>
      <trkpt lat="43.63067" lon="7.06316">
        <ele>70</ele>
        <time>2019-01-26T18:00:32+01:00</time>
      </trkpt>
      <trkpt lat="43.63023" lon="7.06312">
        <ele>70</ele>
        <time>2019-01-26T18:00:37+01:00</time>
      </trkpt>
      <trkpt lat="43.62905" lon="7.06397">
        <ele>71</ele>
        <time>2019-01-26T18:00:42+01:00</time>
      </trkpt>
      <trkpt lat="43.62818" lon="7.06522">
        <ele>63</ele>
        <time>2019-01-26T18:00:47+01:00</time>
      </trkpt>
      <trkpt lat="43.62794" lon="7.06599">
        <ele>62</ele>
        <time>2019-01-26T18:00:52+01:00</time>
      </trkpt>
      <trkpt lat="43.62772" lon="7.06621">
        <ele>62</ele>
        <time>2019-01-26T18:00:57+01:00</time>
      </trkpt>
      <trkpt lat="43.62694" lon="7.06569">
        <ele>63</ele>
        <time>2019-01-26T18:01:02+01:00</time>
      </trkpt>
      <trkpt lat="43.62648" lon="7.0659">
        <ele>60</ele>
        <time>2019-01-26T18:01:07+01:00</time>
      </trkpt>
      <trkpt lat="43.62654" lon="7.06741">
        <ele>60</ele>
        <time>2019-01-26T18:01:12+01:00</time>
      </trkpt>
      <trkpt lat="43.62564" lon="7.06788">
        <ele>62</ele>
        <time>2019-01-26T18:01:17+01:00</time>
      </trkpt>
      <trkpt lat="43.62551" lon="7.06844">
        <ele>61</ele>
        <time>2019-01-26T18:01:22+01:00</time>
      </trkpt>
      <trkpt lat="43.62604" lon="7.0705">
        <ele>60</ele>
        <time>2019-01-26T18:01:27+01:00</time>
      </trkpt>
      <trkpt lat="43.62648" lon="7.0714">
        <ele>54</ele>
        <time>2019-01-26T18:01:32+01:00</time>
      </trkpt>
      <trkpt lat="43.62644" lon="7.07208">
        <ele>55</ele>
        <time>2019-01-26T18:01:37+01:00</time>
      </trkpt>
      <trkpt lat="43.62585" lon="7.07316">
        <ele>51</ele>
        <time>2019-01-26T18:01:42+01:00</time>
      </trkpt>
      <trkpt lat="43.62514" lon="7.07466">
        <ele>51</ele>
        <time>2019-01-26T18:01:47+01:00</time>
      </trkpt>
      <trkpt lat="43.62483" lon="7.07543">
        <ele>52</ele>
        <time>2019-01-26T18:01:52+01:00</time>
      </trkpt>
      <trkpt lat="43.62433" lon="7.07749">
        <ele>50</ele>
        <time>2019-01-26T18:01:57+01:00</time>
      </trkpt>
      <trkpt lat="43.62402" lon="7.07831">
        <ele>48</ele>
        <time>2019-01-26T18:02:02+01:00</time>
      </trkpt>
      <trkpt lat="43.6239" lon="7.07921">
        <ele>44</ele>
        <time>2019-01-26T18:02:07+01:00</time>
      </trkpt>
      <trkpt lat="43.62495" lon="7.08032">
        <ele>41</ele>
        <time>2019-01-26T18:02:12+01:00</time>
      </trkpt>
      <trkpt lat="43.62539" lon="7.08144">
        <ele>40</ele>
        <time>2019-01-26T18:02:17+01:00</time>
      </trkpt>
      <trkpt lat="43.62579" lon="7.08161">
        <ele>40</ele>
        <time>2019-01-26T18:02:22+01:00</time>
      </trkpt>
      <trkpt lat="43.62629" lon="7.0811">
        <ele>41</ele>
        <time>2019-01-26T18:02:27+01:00</time>
      </trkpt>
      <trkpt lat="43.62707" lon="7.07951">
        <ele>41</ele>
        <time>2019-01-26T18:02:32+01:00</time>
      </trkpt>
      <trkpt lat="43.62728" lon="7.07899">
        <ele>42</ele>
        <time>2019-01-26T18:02:37+01:00</time>
      </trkpt>
      <trkpt lat="43.62803" lon="7.07882">
        <ele>42</ele>
        <time>2019-01-26T18:02:42+01:00</time>
      </trkpt>
      <trkpt lat="43.62933" lon="7.08015">
        <ele>41</ele>
        <time>2019-01-26T18:02:47+01:00</time>
      </trkpt>
      <trkpt lat="43.6284" lon="7.07921">
        <ele>41</ele>
        <time>2019-01-26T18:02:52+01:00</time>
      </trkpt>
      <trkpt lat="43.628" lon="7.07887">
        <ele>41</ele>
        <time>2019-01-26T18:02:57+01:00</time>
      </trkpt>
      <trkpt lat="43.62722" lon="7.07921">
        <ele>40</ele>
        <time>2019-01-26T18:03:02+01:00</time>
      </trkpt>
      <trkpt lat="43.6262" lon="7.08105">
        <ele>41</ele>
        <time>2019-01-26T18:03:07+01:00</time>
      </trkpt>
      <trkpt lat="43.62585" lon="7.08174">
        <ele>42</ele>
        <time>2019-01-26T18:03:12+01:00</time>
      </trkpt>
      <trkpt lat="43.62533" lon="7.08165">
        <ele>40</ele>
        <time>2019-01-26T18:03:17+01:00</time>
      </trkpt>
      <trkpt lat="43.62505" lon="7.08131">
        <ele>43</ele>
        <time>2019-01-26T18:03:22+01:00</time>
      </trkpt>
      <trkpt lat="43.62483" lon="7.08024">
        <ele>41</ele>
        <time>2019-01-26T18:03:27+01:00</time>
      </trkpt>
      <trkpt lat="43.62399" lon="7.07891">
        <ele>41</ele>
        <time>2019-01-26T18:03:32+01:00</time>
      </trkpt>
      <trkpt lat="43.62418" lon="7.07762">
        <ele>51</ele>
        <time>2019-01-26T18:03:37+01:00</time>
      </trkpt>
      <trkpt lat="43.62464" lon="7.07642">
        <ele>50</ele>
        <time>2019-01-26T18:03:42+01:00</time>
      </trkpt>
      <trkpt lat="43.62467" lon="7.07565">
        <ele>52</ele>
        <time>2019-01-26T18:03:47+01:00</time>
      </trkpt>
      <trkpt lat="43.62505" lon="7.07483">
        <ele>51</ele>
        <time>2019-01-26T18:03:52+01:00</time>
      </trkpt>
      <trkpt lat="43.62573" lon="7.07311">
        <ele>54</ele>
        <time>2019-01-26T18:03:57+01:00</time>
      </trkpt>
      <trkpt lat="43.62641" lon="7.07213">
        <ele>53</ele>
        <time>2019-01-26T18:04:02+01:00</time>
      </trkpt>
      <trkpt lat="43.62648" lon="7.0711">
        <ele>55</ele>
        <time>2019-01-26T18:04:07+01:00</time>
      </trkpt>
      <trkpt lat="43.62585" lon="7.0696">
        <ele>61</ele>
        <time>2019-01-26T18:04:12+01:00</time>
      </trkpt>
      <trkpt lat="43.62554" lon="7.06887">
        <ele>60</ele>
        <time>2019-01-26T18:04:17+01:00</time>
      </trkpt>
      <trkpt lat="43.62545" lon="7.06814">
        <ele>63</ele>
        <time>2019-01-26T18:04:22+01:00</time>
      </trkpt>
      <trkpt lat="43.62554" lon="7.06779">
        <ele>64</ele>
        <time>2019-01-26T18:04:27+01:00</time>
      </trkpt>
      <trkpt lat="43.62638" lon="7.06741">
        <ele>60</ele>
        <time>2019-01-26T18:04:32+01:00</time>
      </trkpt>
      <trkpt lat="43.62648" lon="7.06638">
        <ele>60</ele>
        <time>2019-01-26T18:04:37+01:00</time>
      </trkpt>
      <trkpt lat="43.62654" lon="7.06586">
        <ele>60</ele>
        <time>2019-01-26T18:04:42+01:00</time>
      </trkpt>
      <trkpt lat="43.627" lon="7.0656">
        <ele>65</ele>
        <time>2019-01-26T18:04:47+01:00</time>
      </trkpt>
      <trkpt lat="43.62772" lon="7.06612">
        <ele>60</ele>
        <time>2019-01-26T18:04:52+01:00</time>
      </trkpt>
      <trkpt lat="43.628" lon="7.06582">
        <ele>61</ele>
        <time>2019-01-26T18:04:57+01:00</time>
      </trkpt>
      <trkpt lat="43.62812" lon="7.0656">
        <ele>61</ele>
        <time>2019-01-26T18:05:02+01:00</time>
      </trkpt>
      <trkpt lat="43.62896" lon="7.06406">
        <ele>71</ele>
        <time>2019-01-26T18:05:07+01:00</time>
      </trkpt>
      <trkpt lat="43.63042" lon="7.06299">
        <ele>71</ele>
        <time>2019-01-26T18:05:12+01:00</time>
      </trkpt>
      <trkpt lat="43.63082" lon="7.06312">
        <ele>70</ele>
        <time>2019-01-26T18:05:17+01:00</time>
      </trkpt>
      <trkpt lat="43.63163" lon="7.06346">
        <ele>70</ele>
        <time>2019-01-26T18:05:22+01:00</time>
      </trkpt>
      <trkpt lat="43.63197" lon="7.06269">
        <ele>71</ele>
        <time>2019-01-26T18:05:27+01:00</time>
      </trkpt>
      <trkpt lat="43.63169" lon="7.06166">
        <ele>71</ele>
        <time>2019-01-26T18:05:32+01:00</time>
      </trkpt>
      <trkpt lat="43.63095" lon="7.06076">
        <ele>71</ele>
        <time>2019-01-26T18:05:37+01:00</time>
      </trkpt>
      <trkpt lat="43.63082" lon="7.05998">
        <ele>71</ele>
        <time>2019-01-26T18:05:42+01:00</time>
      </trkpt>
      <trkpt lat="43.63095" lon="7.05934">
        <ele>71</ele>
        <time>2019-01-26T18:05:47+01:00</time>
      </trkpt>
      <trkpt lat="43.63141" lon="7.05848">
        <ele>77</ele>
        <time>2019-01-26T18:05:52+01:00</time>
      </trkpt>
      <trkpt lat="43.63225" lon="7.05835">
        <ele>80</ele>
        <time>2019-01-26T18:05:57+01:00</time>
      </trkpt>
      <trkpt lat="43.63263" lon="7.05797">
        <ele>83</ele>
        <time>2019-01-26T18:06:02+01:00</time>
      </trkpt>
      <trkpt lat="43.6325" lon="7.05736">
        <ele>80</ele>
        <time>2019-01-26T18:06:07+01:00</time>
      </trkpt>
      <trkpt lat="43.63194" lon="7.05659">
        <ele>80</ele>
        <time>2019-01-26T18:06:12+01:00</time>
      </trkpt>
      <trkpt lat="43.63204" lon="7.05582">
        <ele>81</ele>
        <time>2019-01-26T18:06:17+01:00</time>
      </trkpt>
      <trkpt lat="43.63225" lon="7.05522">
        <ele>81</ele>
        <time>2019-01-26T18:06:22+01:00</time>
      </trkpt>
      <trkpt lat="43.63328" lon="7.05445">
        <ele>90</ele>
        <time>2019-01-26T18:06:27+01:00</time>
      </trkpt>
      <trkpt lat="43.63362" lon="7.05406">
        <ele>90</ele>
        <time>2019-01-26T18:06:32+01:00</time>
      </trkpt>
      <trkpt lat="43.63406" lon="7.05286">
        <ele>90</ele>
        <time>2019-01-26T18:06:37+01:00</time>
      </trkpt>
      <trkpt lat="43.63483" lon="7.05157">
        <ele>92</ele>
        <time>2019-01-26T18:06:42+01:00</time>
      </trkpt>
      <trkpt lat="43.63477" lon="7.05088">
        <ele>91</ele>
        <time>2019-01-26T18:06:47+01:00</time>
      </trkpt>
      <trkpt lat="43.63474" lon="7.0496">
        <ele>93</ele>
        <time>2019-01-26T18:06:52+01:00</time>
      </trkpt>
      <trkpt lat="43.63449" lon="7.049">
        <ele>95</ele>
        <time>2019-01-26T18:06:57+01:00</time>
      </trkpt>
      <trkpt lat="43.63471" lon="7.04655">
        <ele>97</ele>
        <time>2019-01-26T18:07:02+01:00</time>
      </trkpt>
      <trkpt lat="43.63471" lon="7.04586">
        <ele>98</ele>
        <time>2019-01-26T18:07:07+01:00</time>
      </trkpt>
      <trkpt lat="43.63415" lon="7.04479">
        <ele>111</ele>
        <time>2019-01-26T18:07:12+01:00</time>
      </trkpt>
      <trkpt lat="43.63393" lon="7.04333">
        <ele>101</ele>
        <time>2019-01-26T18:07:17+01:00</time>
      </trkpt>
      <trkpt lat="43.63346" lon="7.04239">
        <ele>111</ele>
        <time>2019-01-26T18:07:22+01:00</time>
      </trkpt>
      <trkpt lat="43.63303" lon="7.04209">
        <ele>111</ele>
        <time>2019-01-26T18:07:27+01:00</time>
      </trkpt>
      <trkpt lat="43.63291" lon="7.04166">
        <ele>113</ele>
        <time>2019-01-26T18:07:32+01:00</time>
      </trkpt>
      <trkpt lat="43.633" lon="7.04114">
        <ele>111</ele>
        <time>2019-01-26T18:07:37+01:00</time>
      </trkpt>
      <trkpt lat="43.63247" lon="7.0402">
        <ele>112</ele>
        <time>2019-01-26T18:07:42+01:00</time>
      </trkpt>
      <trkpt lat="43.63253" lon="7.03865">
        <ele>120</ele>
        <time>2019-01-26T18:07:47+01:00</time>
      </trkpt>
      <trkpt lat="43.63343" lon="7.03797">
        <ele>125</ele>
        <time>2019-01-26T18:07:52+01:00</time>
      </trkpt>
      <trkpt lat="43.63412" lon="7.03788">
        <ele>128</ele>
        <time>2019-01-26T18:07:57+01:00</time>
      </trkpt>
      <trkpt lat="43.63465" lon="7.03818">
        <ele>126</ele>
        <time>2019-01-26T18:08:02+01:00</time>
      </trkpt>
      <trkpt lat="43.63536" lon="7.03762">
        <ele>134</ele>
        <time>2019-01-26T18:08:07+01:00</time>
      </trkpt>
      <trkpt lat="43.63524" lon="7.03672">
        <ele>135</ele>
        <time>2019-01-26T18:08:12+01:00</time>
      </trkpt>
      <trkpt lat="43.6353" lon="7.03612">
        <ele>143</ele>
        <time>2019-01-26T18:08:17+01:00</time>
      </trkpt>
      <trkpt lat="43.63579" lon="7.03604">
        <ele>140</ele>
        <time>2019-01-26T18:08:22+01:00</time>
      </trkpt>
      <trkpt lat="43.63598" lon="7.03535">
        <ele>143</ele>
        <time>2019-01-26T18:08:27+01:00</time>
      </trkpt>
      <trkpt lat="43.63583" lon="7.03466">
        <ele>149</ele>
        <time>2019-01-26T18:08:32+01:00</time>
      </trkpt>
      <trkpt lat="43.63508" lon="7.03569">
        <ele>159</ele>
        <time>2019-01-26T18:08:37+01:00</time>
      </trkpt>
      <trkpt lat="43.63424" lon="7.03638">
        <ele>167</ele>
        <time>2019-01-26T18:08:42+01:00</time>
      </trkpt>
      <trkpt lat="43.63312" lon="7.03578">
        <ele>182</ele>
        <time>2019-01-26T18:08:47+01:00</time>
      </trkpt>
      <trkpt lat="43.63278" lon="7.03518">
        <ele>187</ele>
        <time>2019-01-26T18:08:52+01:00</time>
      </trkpt>
      <trkpt lat="43.63272" lon="7.03453">
        <ele>194</ele>
        <time>2019-01-26T18:08:57+01:00</time>
      </trkpt>
      <trkpt lat="43.63225" lon="7.03415">
        <ele>199</ele>
        <time>2019-01-26T18:09:02+01:00</time>
      </trkpt>
      <trkpt lat="43.63191" lon="7.03355">
        <ele>200</ele>
        <time>2019-01-26T18:09:07+01:00</time>
      </trkpt>
      <trkpt lat="43.6325" lon="7.03385">
        <ele>203</ele>
        <time>2019-01-26T18:09:12+01:00</time>
      </trkpt>
      <trkpt lat="43.63399" lon="7.03338">
        <ele>202</ele>
        <time>2019-01-26T18:09:17+01:00</time>
      </trkpt>
      <trkpt lat="43.63499" lon="7.03247">
        <ele>199</ele>
        <time>2019-01-26T18:09:22+01:00</time>
      </trkpt>
      <trkpt lat="43.63514" lon="7.03162">
        <ele>197</ele>
        <time>2019-01-26T18:09:27+01:00</time>
      </trkpt>
      <trkpt lat="43.6353" lon="7.0299">
        <ele>191</ele>
        <time>2019-01-26T18:09:32+01:00</time>
      </trkpt>
      <trkpt lat="43.63524" lon="7.02895">
        <ele>193</ele>
        <time>2019-01-26T18:09:37+01:00</time>
      </trkpt>
      <trkpt lat="43.63496" lon="7.02788">
        <ele>193</ele>
        <time>2019-01-26T18:09:42+01:00</time>
      </trkpt>
      <trkpt lat="43.63601" lon="7.02672">
        <ele>184</ele>
        <time>2019-01-26T18:09:47+01:00</time>
      </trkpt>
      <trkpt lat="43.63629" lon="7.02612">
        <ele>188</ele>
        <time>2019-01-26T18:09:52+01:00</time>
      </trkpt>
      <trkpt lat="43.63713" lon="7.02514">
        <ele>201</ele>
        <time>2019-01-26T18:09:57+01:00</time>
      </trkpt>
      <trkpt lat="43.63756" lon="7.02466">
        <ele>204</ele>
        <time>2019-01-26T18:10:02+01:00</time>
      </trkpt>
      <trkpt lat="43.63806" lon="7.02389">
        <ele>201</ele>
        <time>2019-01-26T18:10:07+01:00</time>
      </trkpt>
      <trkpt lat="43.63834" lon="7.02205">
        <ele>204</ele>
        <time>2019-01-26T18:10:12+01:00</time>
      </trkpt>
      <trkpt lat="43.63809" lon="7.0214">
        <ele>202</ele>
        <time>2019-01-26T18:10:17+01:00</time>
      </trkpt>
      <trkpt lat="43.6384" lon="7.01938">
        <ele>190</ele>
        <time>2019-01-26T18:10:22+01:00</time>
      </trkpt>
      <trkpt lat="43.63834" lon="7.019">
        <ele>192</ele>
        <time>2019-01-26T18:10:27+01:00</time>
      </trkpt>
      <trkpt lat="43.63837" lon="7.01823">
        <ele>187</ele>
        <time>2019-01-26T18:10:32+01:00</time>
      </trkpt>
      <trkpt lat="43.63853" lon="7.0184">
        <ele>180</ele>
        <time>2019-01-26T18:10:37+01:00</time>
      </trkpt>
      <trkpt lat="43.63875" lon="7.01754">
        <ele>171</ele>
        <time>2019-01-26T18:10:42+01:00</time>
      </trkpt>
      <trkpt lat="43.63859" lon="7.0169">
        <ele>172</ele>
        <time>2019-01-26T18:10:47+01:00</time>
      </trkpt>
      <trkpt lat="43.63847" lon="7.01655">
        <ele>174</ele>
        <time>2019-01-26T18:10:52+01:00</time>
      </trkpt>
      <trkpt lat="43.63853" lon="7.01638">
        <ele>173</ele>
        <time>2019-01-26T18:10:57+01:00</time>
      </trkpt>
      <trkpt lat="43.63862" lon="7.01608">
        <ele>173</ele>
        <time>2019-01-26T18:11:02+01:00</time>
      </trkpt>
      <trkpt lat="43.63843" lon="7.01552">
        <ele>179</ele>
        <time>2019-01-26T18:11:07+01:00</time>
      </trkpt>
      <trkpt lat="43.63865" lon="7.01393">
        <ele>193</ele>
        <time>2019-01-26T18:11:12+01:00</time>
      </trkpt>
      <trkpt lat="43.63828" lon="7.01299">
        <ele>185</ele>
        <time>2019-01-26T18:11:17+01:00</time>
      </trkpt>
      <trkpt lat="43.6384" lon="7.01235">
        <ele>186</ele>
        <time>2019-01-26T18:11:22+01:00</time>
      </trkpt>
      <trkpt lat="43.63996" lon="7.01033">
        <ele>187</ele>
        <time>2019-01-26T18:11:27+01:00</time>
      </trkpt>
      <trkpt lat="43.64061" lon="7.00934">
        <ele>188</ele>
        <time>2019-01-26T18:11:32+01:00</time>
      </trkpt>
      <trkpt lat="43.64061" lon="7.0087">
        <ele>187</ele>
        <time>2019-01-26T18:11:37+01:00</time>
      </trkpt>
    </trkseg>
  </trk>
</gpx>